Latest Weather Observations for Renmark Airport

IDS60801

Issued at 11:01 pm CST Tuesday 1 September 2015 (issued every 30 minutes, with the page automatically refreshed every 10 minutes)

About weather observations | Map of weather stations | Latest weather observations for SA | Other Formats
Station Details ID: 024048 Name: RENMARK AERO Lat: -34.20 Lon: 140.68 Height: 31.5 m
Data from the previous 72 hours. | See also: Recent months at Renmark Airport
Date/Time
CST
Temp
°C
App
Temp
°C
Dew
Point
Rel
Hum
%
Delta-T
°C
Wind Press
QNH
hPa
Press
MSL
hPa
Rain
since 9 am
mm
Dir
 
Spd
km/h
Gust
km/h
Spd
kts
Gust
kts
01/11:00pm 13.8 10.2 0.8 41 5.5 NNE 9 13 5 7 1009.7 1009.7 0.0
01/10:30pm 14.7 10.7 0.2 37 6.1 NE 11 13 6 7 1009.9 1009.9 0.0
01/10:00pm 15.8 11.8 0.8 36 6.5 NNE 11 15 6 8 1010.0 1010.0 0.0
01/09:30pm 15.6 11.6 0.2 35 6.6 NE 11 13 6 7 1010.2 1010.2 0.0
01/09:00pm 15.8 11.4 0.4 35 6.6 NNE 13 15 7 8 1010.1 1010.1 0.0
01/08:30pm 15.8 11.4 0.4 35 6.6 NNE 13 15 7 8 1010.0 1010.0 0.0
01/08:00pm 15.8 11.4 0.4 35 6.6 NNE 13 13 7 7 1009.7 1009.7 0.0
01/07:30pm 17.5 12.6 -0.7 29 7.8 N 15 19 8 10 1010.0 1010.0 0.0
01/07:00pm 17.7 13.1 -1.0 28 7.9 N 13 17 7 9 1009.9 1009.9 0.0
01/06:30pm 18.5 13.4 -1.9 25 8.6 N 15 20 8 11 1010.0 1010.0 0.0
01/06:00pm 19.1 13.0 -2.5 23 9.0 NNW 20 28 11 15 1010.1 1010.1 0.0
01/05:30pm 19.8 13.7 -2.5 22 9.4 NNW 20 30 11 16 1010.0 1010.0 0.0
01/05:00pm 20.3 14.3 -1.5 23 9.4 N 20 26 11 14 1009.9 1009.9 0.0
01/04:30pm 20.9 13.8 -1.6 22 9.7 N 26 35 14 19 1010.0 1010.0 0.0
01/04:00pm 21.3 14.9 -1.9 21 10.0 N 22 28 12 15 1010.1 1010.1 0.0
01/03:30pm 22.6 16.5 -2.2 19 10.8 NNE 20 28 11 15 1010.3 1010.3 0.0
01/03:00pm 22.2 15.7 -2.5 19 10.6 NNE 22 32 12 17 1010.6 1010.6 0.0
01/02:30pm 22.3 15.8 -2.4 19 10.6 N 22 32 12 17 1011.0 1011.0 0.0
01/02:00pm 22.5 16.4 -2.2 19 10.7 N 20 37 11 20 1011.3 1011.3 0.0
01/01:30pm 21.7 15.7 -1.6 21 10.1 N 20 28 11 15 1011.6 1011.6 0.0
01/01:00pm 22.1 15.8 -1.2 21 10.2 NNW 22 30 12 16 1012.2 1012.2 0.0
01/12:30pm 21.7 14.9 -1.6 21 10.1 N 24 35 13 19 1012.7 1012.7 0.0
01/12:00pm 21.4 14.7 -1.2 22 9.9 N 24 33 13 18 1013.3 1013.3 0.0
01/11:30am 21.3 15.0 -1.3 22 9.8 NNW 22 32 12 17 1014.0 1014.0 0.0
01/11:00am 21.2 15.5 -0.7 23 9.6 NNW 19 28 10 15 1014.3 1014.3 0.0
01/10:30am 19.4 13.5 -0.6 26 8.7 NNW 20 28 11 15 1014.6 1014.6 0.0
01/10:00am 18.6 12.8 -0.2 28 8.2 N 20 24 11 13 1014.9 1014.9 0.0
01/09:30am 17.5 12.8 0.6 32 7.4 NNW 15 20 8 11 1015.3 1015.3 0.0
01/09:00am 15.4 11.1 1.2 38 6.2 N 13 17 7 9 1015.8 1015.8 0.0
01/08:30am 13.3 9.0 1.3 44 5.1 N 13 20 7 11 1015.8 1015.8 0.0
01/08:00am 11.3 7.1 1.5 51 4.1 N 13 17 7 9 1015.7 1015.7 0.0
01/07:30am 8.6 4.4 1.5 61 2.9 NNE 13 15 7 8 1015.5 1015.5 0.0
01/07:24am 6.7 3.1 0.8 66 2.3 NNE 9 13 5 7 1015.5 1015.5 0.0
01/07:00am 1.5 -1.0 -3.7 68 1.8 CALM 0 0 0 0 1015.3 1015.4 0.0
01/06:30am 0.4 -2.5 -4.4 70 1.6 NE 2 6 1 3 1015.0 1015.1 0.0
01/06:00am -0.1 -3.5 -5.1 69 1.6 NE 4 7 2 4 1015.2 1015.3 0.0
01/05:30am 0.4 -3.3 -4.2 71 1.5 NE 6 9 3 5 1015.3 1015.4 0.0
01/05:00am 0.0 -2.6 -4.6 71 1.5 CALM 0 4 0 2 1015.3 1015.4 0.0
01/04:30am -0.3 -2.9 -5.1 70 1.5 CALM 0 0 0 0 1015.1 1015.2 0.0
01/04:00am 0.3 -2.3 -4.5 70 1.6 CALM 0 4 0 2 1015.0 1015.1 0.0
01/03:30am 1.0 -1.5 -3.8 70 1.6 CALM 0 0 0 0 1015.2 1015.3 0.0
01/03:00am 0.5 -2.1 -4.7 68 1.7 CALM 0 0 0 0 1015.7 1015.7 0.0
01/02:30am 1.0 -1.5 -4.4 67 1.8 CALM 0 0 0 0 1016.1 1016.1 0.0
01/02:00am 1.4 -1.1 -4.2 66 1.9 CALM 0 0 0 0 1016.2 1016.2 0.0
01/01:30am 1.3 -1.3 -4.7 64 2.0 CALM 0 0 0 0 1016.4 1016.4 0.0
01/01:00am 1.7 -0.8 -4.4 64 2.1 CALM 0 0 0 0 1016.6 1016.6 0.0
01/12:30am 2.1 -0.4 -4.0 64 2.0 CALM 0 0 0 0 1016.9 1016.9 0.0
01/12:00am 2.7 0.2 -4.1 61 2.3 CALM 0 0 0 0 1017.0 1017.0 0.0
 
Date/Time
CST
Temp
°C
App
Temp
°C
Dew
Point
Rel
Hum
%
Delta-T
°C
Wind Press
QNH
hPa
Press
MSL
hPa
Rain
since 9 am
mm
Dir
 
Spd
km/h
Gust
km/h
Spd
kts
Gust
kts
31/11:30pm 2.5 -0.1 -4.7 59 2.3 CALM 0 0 0 0 1017.3 1017.3 0.0
31/11:00pm 3.4 0.9 -4.3 57 2.6 CALM 0 0 0 0 1017.5 1017.5 0.0
31/10:30pm 3.5 1.0 -4.2 57 2.6 CALM 0 0 0 0 1017.9 1017.9 0.0
31/10:00pm 4.0 1.5 -4.0 56 2.7 CALM 0 0 0 0 1018.1 1018.1 0.0
31/09:30pm 4.6 1.8 -3.4 56 2.8 NNE 2 9 1 5 1018.0 1018.0 0.0
31/09:00pm 5.0 2.6 -3.5 54 3.0 CALM 0 0 0 0 1018.0 1018.0 0.0
31/08:30pm 6.6 4.2 -2.8 51 3.4 CALM 0 0 0 0 1018.0 1018.0 0.0
31/08:00pm 7.4 5.1 -2.6 49 3.7 CALM 0 0 0 0 1018.1 1018.1 0.0
31/07:30pm 8.2 5.9 -2.1 48 3.9 CALM 0 0 0 0 1017.8 1017.8 0.0
31/07:00pm 9.3 7.0 -2.3 44 4.4 CALM 0 0 0 0 1017.6 1017.6 0.0
31/06:30pm 12.2 10.0 -1.7 38 5.5 CALM 0 0 0 0 1017.5 1017.5 0.0
31/06:00pm 15.4 12.0 -2.1 30 7.1 SSW 6 7 3 4 1017.4 1017.4 0.0
31/05:30pm 18.2 14.5 -2.7 24 8.6 WSW 7 11 4 6 1017.3 1017.3 0.0
31/05:00pm 19.4 16.3 -2.8 22 9.2 W 4 7 2 4 1017.2 1017.2 0.0
31/04:30pm 19.3 15.6 -2.9 22 9.2 WNW 7 11 4 6 1017.2 1017.2 0.0
31/04:00pm 19.6 15.5 -2.7 22 9.3 W 9 17 5 9 1017.4 1017.4 0.0
31/03:30pm 19.6 15.5 -2.7 22 9.3 SW 9 17 5 9 1017.6 1017.6 0.0
31/03:00pm 19.9 15.7 -3.7 20 9.7 W 9 30 5 16 1017.9 1017.9 0.0
31/02:30pm 19.7 14.9 -2.6 22 9.3 WSW 13 20 7 11 1018.1 1018.1 0.0
31/02:00pm 19.9 15.2 -1.8 23 9.2 W 13 32 7 17 1018.4 1018.4 0.0
31/01:30pm 18.8 15.2 -2.2 24 8.8 WNW 7 13 4 7 1018.7 1018.7 0.0
31/01:00pm 18.2 14.3 -1.6 26 8.3 SSW 9 17 5 9 1019.2 1019.2 0.0
31/12:30pm 18.2 14.4 -1.1 27 8.2 WNW 9 15 5 8 1019.6 1019.6 0.0
31/12:00pm 17.2 13.0 -1.0 29 7.7 NW 11 17 6 9 1020.3 1020.3 0.0
31/11:30am 16.9 13.1 -0.8 30 7.5 NW 9 17 5 9 1020.9 1020.9 0.0
31/11:00am 16.0 12.3 -0.2 33 6.9 NNW 9 17 5 9 1021.3 1021.3 0.0
31/10:30am 14.8 11.3 1.3 40 5.8 NNW 9 17 5 9 1021.7 1021.7 0.0
31/10:00am 13.5 10.2 2.7 48 4.8 NE 9 13 5 7 1021.9 1021.9 0.0
31/09:30am 12.1 9.4 2.8 53 4.1 NE 6 11 3 6 1022.2 1022.2 0.0
31/09:00am 10.6 7.8 2.9 59 3.3 ENE 7 11 4 6 1022.2 1022.2 0.0
31/08:30am 8.9 6.5 2.0 62 2.9 E 4 7 2 4 1022.4 1022.4 0.0
31/08:00am 5.4 3.5 0.6 71 1.9 CALM 0 0 0 0 1022.2 1022.2 0.0
31/07:30am 1.5 -0.7 -1.2 82 0.9 CALM 0 0 0 0 1022.0 1022.0 0.0
31/07:00am -1.9 -4.5 -4.9 80 0.9 CALM 0 0 0 0 1021.9 1021.9 0.0
31/06:30am -2.7 -5.2 -4.4 88 0.4 CALM 0 0 0 0 1021.8 1021.8 0.0
31/06:00am -2.3 -4.9 -4.5 85 0.6 CALM 0 0 0 0 1021.8 1021.8 0.0
31/05:30am -2.0 -4.5 -3.9 87 0.5 CALM 0 0 0 0 1021.8 1021.8 0.0
31/05:00am -1.8 -4.4 -4.5 82 0.8 CALM 0 0 0 0 1021.7 1021.7 0.0
31/04:30am -1.2 -3.7 -4.0 81 0.8 CALM 0 0 0 0 1021.5 1021.5 0.0
31/04:00am -1.1 -3.6 -4.4 78 1.0 CALM 0 0 0 0 1021.6 1021.6 0.0
31/03:30am -0.6 -3.0 -3.3 82 0.9 CALM 0 0 0 0 1021.8 1021.8 0.0
31/03:00am -0.7 -3.3 -4.6 75 1.2 CALM 0 0 0 0 1022.1 1022.1 0.0
31/02:30am 0.8 -1.6 -3.1 75 1.3 CALM 0 0 0 0 1022.3 1022.3 0.0
31/02:00am 1.2 -1.1 -2.5 76 1.3 CALM 0 0 0 0 1022.4 1022.4 0.0
31/01:30am 0.3 -3.4 -4.1 72 1.4 SE 6 7 3 4 1022.5 1022.5 0.0
31/01:00am 1.3 -2.3 -3.4 71 1.6 ESE 6 9 3 5 1022.6 1022.6 0.0
31/12:30am 0.5 -2.5 -4.9 67 1.7 S 2 7 1 4 1022.7 1022.7 0.0
31/12:00am 0.6 -3.2 -5.2 65 1.9 SSW 6 7 3 4 1023.0 1023.0 0.0
 
Date/Time
CST
Temp
°C
App
Temp
°C
Dew
Point
Rel
Hum
%
Delta-T
°C
Wind Press
QNH
hPa
Press
MSL
hPa
Rain
since 9 am
mm
Dir
 
Spd
km/h
Gust
km/h
Spd
kts
Gust
kts
30/11:30pm 0.6 -2.0 -5.0 66 1.8 CALM 0 0 0 0 1023.3 1023.3 0.0
30/11:00pm 1.3 -1.3 -5.2 62 2.2 CALM 0 0 0 0 1023.2 1023.2 0.0
30/10:30pm 2.0 -0.5 -4.3 63 2.2 CALM 0 0 0 0 1023.4 1023.4 0.0
30/10:00pm 2.2 -0.3 -4.1 63 2.1 CALM 0 0 0 0 1023.5 1023.5 0.0
30/09:30pm 2.9 0.4 -4.3 59 2.4 CALM 0 0 0 0 1023.6 1023.6 0.0
30/09:00pm 3.4 -0.3 -4.1 58 2.5 W 6 6 3 3 1023.7 1023.7 0.0
30/08:30pm 4.5 0.9 -3.5 56 2.7 W 6 7 3 4 1023.7 1023.7 0.0
30/08:00pm 5.6 3.3 -2.7 55 3.0 CALM 0 0 0 0 1023.5 1023.5 0.0
30/07:30pm 6.6 4.3 -2.5 52 3.3 CALM 0 0 0 0 1023.4 1023.4 0.0
30/07:00pm 8.0 5.7 -2.0 49 3.7 CALM 0 0 0 0 1023.1 1023.1 0.0
30/06:30pm 10.3 8.1 -1.7 43 4.6 CALM 0 6 0 3 1023.1 1023.1 0.0
30/06:00pm 13.0 9.1 -1.3 37 5.7 SW 9 13 5 7 1022.9 1022.9 0.0
30/05:30pm 14.6 11.0 -2.3 31 6.7 SE 7 9 4 5 1022.7 1022.7 0.0
30/05:00pm 15.7 12.0 -3.2 27 7.5 SE 7 13 4 7 1022.4 1022.4 0.0
30/04:30pm 16.0 11.8 -3.5 26 7.7 SSE 9 15 5 8 1022.5 1022.5 0.0
30/04:00pm 16.2 11.3 -3.3 26 7.8 SSW 13 20 7 11 1022.6 1022.6 0.0
30/03:30pm 16.4 12.7 -2.6 27 7.7 ESE 7 13 4 7 1022.8 1022.8 0.0
30/03:00pm 15.9 11.1 -2.6 28 7.4 SE 13 22 7 12 1023.1 1023.1 0.0
30/02:30pm 16.5 12.9 -2.0 28 7.6 SW 7 15 4 8 1023.5 1023.5 0.0
30/02:00pm 15.8 11.9 -1.7 30 7.2 S 9 15 5 8 1023.7 1023.7 0.0
30/01:30pm 15.2 11.3 -1.4 32 6.8 S 9 17 5 9 1024.0 1024.0 0.0
30/01:00pm 15.3 11.5 -0.9 33 6.7 SSE 9 17 5 9 1024.4 1024.4 0.0
30/12:30pm 14.5 11.1 -0.4 36 6.2 ESE 7 13 4 7 1024.9 1024.9 0.0
30/12:00pm 13.7 10.0 -0.3 38 5.8 ESE 9 15 5 8 1025.5 1025.5 0.0
30/11:30am 14.0 10.4 0.6 40 5.6 NNE 9 17 5 9 1026.0 1026.0 0.0
30/11:00am 12.5 9.0 1.2 46 4.8 ENE 9 13 5 7 1026.7 1026.7 0.0
30/10:30am 12.1 9.3 3.1 54 3.9 ESE 7 11 4 6 1027.4 1027.4 0.0
30/10:00am 10.7 7.5 2.8 58 3.4 ESE 9 13 5 7 1027.6 1027.6 0.0
30/09:30am 9.7 6.1 3.0 63 2.9 ESE 11 17 6 9 1027.7 1027.7 0.0
30/09:00am 8.0 4.4 2.7 69 2.2 ESE 11 17 6 9 1027.7 1027.7 0.0
30/08:30am 6.5 3.1 1.6 71 2.0 ESE 9 13 5 7 1027.8 1027.8 0.0
30/08:00am 5.0 2.0 0.9 75 1.6 S 6 9 3 5 1027.6 1027.6 0.0
30/07:30am 0.7 -1.5 -1.8 83 0.9 CALM 0 0 0 0 1027.5 1027.5 0.0
30/07:00am -2.8 -6.5 -4.4 89 0.4 W 6 7 3 4 1027.3 1027.3 0.0
30/06:30am -3.9 -7.7 -5.6 88 0.3 W 6 7 3 4 1027.0 1027.0 0.0
30/06:00am -3.3 -7.1 -5.1 87 0.4 W 6 7 3 4 1026.4 1026.4 0.0
30/05:30am -3.1 -5.7 -4.9 87 0.4 CALM 0 0 0 0 1026.1 1026.1 0.0
30/05:00am -2.6 -5.2 -4.6 86 0.5 CALM 0 0 0 0 1026.1 1026.1 0.0
30/04:30am -2.3 -4.8 -4.3 86 0.5 CALM 0 0 0 0 1026.1 1026.1 0.0
30/04:00am -2.0 -4.5 -4.3 84 0.6 CALM 0 0 0 0 1026.1 1026.1 0.0
30/03:30am -2.2 -4.8 -4.7 83 0.7 CALM 0 0 0 0 1026.2 1026.2 0.0
30/03:00am -1.5 -4.0 -4.0 83 0.7 CALM 0 0 0 0 1026.3 1026.3 0.0
30/02:30am -1.1 -3.6 -3.6 83 0.8 CALM 0 6 0 3 1026.5 1026.5 0.0
30/02:00am -0.6 -3.1 -3.9 78 1.0 CALM 0 0 0 0 1026.7 1026.7 0.0
30/01:30am 0.5 -1.9 -3.2 76 1.3 CALM 0 0 0 0 1026.9 1026.9 0.0
30/01:00am 0.2 -3.5 -3.2 78 1.1 S 7 9 4 5 1027.3 1027.3 0.0
30/12:30am 1.2 -2.3 -2.7 75 1.4 SW 6 7 3 4 1027.2 1027.2 0.0
30/12:00am 2.6 -0.7 -1.6 74 1.5 SSW 6 6 3 3 1027.2 1027.2 0.0
 
Date/Time
CST
Temp
°C
App
Temp
°C
Dew
Point
Rel
Hum
%
Delta-T
°C
Wind Press
QNH
hPa
Press
MSL
hPa
Rain
since 9 am
mm
Dir
 
Spd
km/h
Gust
km/h
Spd
kts
Gust
kts
29/11:30pm 3.9 0.5 -1.9 66 2.1 SW 6 9 3 5 1027.4 1027.4 0.0

Other Formats:

Comma delimited format used in spreadsheet applications
http://www.bom.gov.au/fwo/IDS60801/IDS60801.95687.axf

JavaScript Object Notation format (JSON) in row-major order
http://www.bom.gov.au/fwo/IDS60801/IDS60801.95687.json